sensor_id;sensor_type;location;lat;lon;timestamp;temperature;humidity
22779;DHT22;11556;51.194;3.800;2024-02-26T00:00:35;7.00;99.90
22779;DHT22;11556;51.194;3.800;2024-02-26T00:03:01;6.90;99.90
22779;DHT22;11556;51.194;3.800;2024-02-26T00:05:27;7.00;99.90
22779;DHT22;11556;51.194;3.800;2024-02-26T00:07:52;6.90;99.90
22779;DHT22;11556;51.194;3.800;2024-02-26T00:10:18;6.90;99.90
22779;DHT22;11556;51.194;3.800;2024-02-26T00:12:44;6.90;99.90
22779;DHT22;11556;51.194;3.800;2024-02-26T00:15:10;6.90;99.90
22779;DHT22;11556;51.194;3.800;2024-02-26T00:17:36;6.90;99.90
22779;DHT22;11556;51.194;3.800;2024-02-26T00:20:05;6.90;99.90
22779;DHT22;11556;51.194;3.800;2024-02-26T00:22:34;6.90;99.90
22779;DHT22;11556;51.194;3.800;2024-02-26T00:25:00;6.80;99.90
22779;DHT22;11556;51.194;3.800;2024-02-26T00:27:25;6.80;99.90
22779;DHT22;11556;51.194;3.800;2024-02-26T00:29:51;6.80;99.90
22779;DHT22;11556;51.194;3.800;2024-02-26T00:32:16;6.80;99.90
22779;DHT22;11556;51.194;3.800;2024-02-26T00:34:42;6.80;99.90
22779;DHT22;11556;51.194;3.800;2024-02-26T00:37:08;6.70;99.90
22779;DHT22;11556;51.194;3.800;2024-02-26T00:39:33;6.60;99.90
22779;DHT22;11556;51.194;3.800;2024-02-26T00:41:59;6.60;99.90
22779;DHT22;11556;51.194;3.800;2024-02-26T00:44:24;6.60;99.90
22779;DHT22;11556;51.194;3.800;2024-02-26T00:46:50;6.50;99.90
22779;DHT22;11556;51.194;3.800;2024-02-26T00:49:16;6.60;99.90
22779;DHT22;11556;51.194;3.800;2024-02-26T00:51:41;6.50;99.90
22779;DHT22;11556;51.194;3.800;2024-02-26T00:54:07;6.50;99.90
22779;DHT22;11556;51.194;3.800;2024-02-26T00:56:32;6.50;99.90
22779;DHT22;11556;51.194;3.800;2024-02-26T00:58:58;6.50;99.90
22779;DHT22;11556;51.194;3.800;2024-02-26T01:01:24;6.50;99.90
22779;DHT22;11556;51.194;3.800;2024-02-26T01:03:49;6.50;99.90
22779;DHT22;11556;51.194;3.800;2024-02-26T01:06:15;6.50;99.90
22779;DHT22;11556;51.194;3.800;2024-02-26T01:08:41;6.50;99.90
22779;DHT22;11556;51.194;3.800;2024-02-26T01:11:06;6.50;99.90
22779;DHT22;11556;51.194;3.800;2024-02-26T01:13:33;6.50;99.90
22779;DHT22;11556;51.194;3.800;2024-02-26T01:15:58;6.60;99.90
22779;DHT22;11556;51.194;3.800;2024-02-26T01:18:24;6.60;99.90
22779;DHT22;11556;51.194;3.800;2024-02-26T01:20:50;6.60;99.90
22779;DHT22;11556;51.194;3.800;2024-02-26T01:23:15;6.60;99.90
22779;DHT22;11556;51.194;3.800;2024-02-26T01:25:41;6.60;99.90
22779;DHT22;11556;51.194;3.800;2024-02-26T01:28:08;6.60;99.90
22779;DHT22;11556;51.194;3.800;2024-02-26T01:30:33;6.60;99.90
22779;DHT22;11556;51.194;3.800;2024-02-26T01:32:59;6.60;99.90
22779;DHT22;11556;51.194;3.800;2024-02-26T01:35:24;6.50;99.90
22779;DHT22;11556;51.194;3.800;2024-02-26T01:37:50;6.50;99.90
22779;DHT22;11556;51.194;3.800;2024-02-26T01:40:16;6.50;99.90
22779;DHT22;11556;51.194;3.800;2024-02-26T01:42:45;6.50;99.90
22779;DHT22;11556;51.194;3.800;2024-02-26T01:45:15;6.50;99.90
22779;DHT22;11556;51.194;3.800;2024-02-26T01:47:48;6.50;99.90
22779;DHT22;11556;51.194;3.800;2024-02-26T01:50:15;6.50;99.90
22779;DHT22;11556;51.194;3.800;2024-02-26T01:52:40;6.40;99.90
22779;DHT22;11556;51.194;3.800;2024-02-26T01:55:07;6.40;99.90
22779;DHT22;11556;51.194;3.800;2024-02-26T01:57:33;6.40;99.90
22779;DHT22;11556;51.194;3.800;2024-02-26T01:59:59;6.40;99.90
22779;DHT22;11556;51.194;3.800;2024-02-26T02:02:25;6.40;99.90
22779;DHT22;11556;51.194;3.800;2024-02-26T02:04:51;6.40;99.90
22779;DHT22;11556;51.194;3.800;2024-02-26T02:07:18;6.40;99.90
22779;DHT22;11556;51.194;3.800;2024-02-26T02:09:44;6.40;99.90
22779;DHT22;11556;51.194;3.800;2024-02-26T02:12:11;6.40;99.90
22779;DHT22;11556;51.194;3.800;2024-02-26T02:14:36;6.40;99.90
22779;DHT22;11556;51.194;3.800;2024-02-26T02:17:02;6.40;99.90
22779;DHT22;11556;51.194;3.800;2024-02-26T02:19:28;6.40;99.90
22779;DHT22;11556;51.194;3.800;2024-02-26T02:21:53;6.40;99.90
22779;DHT22;11556;51.194;3.800;2024-02-26T02:24:19;6.30;99.90
22779;DHT22;11556;51.194;3.800;2024-02-26T02:26:45;6.30;99.90
22779;DHT22;11556;51.194;3.800;2024-02-26T02:29:11;6.30;99.90
22779;DHT22;11556;51.194;3.800;2024-02-26T02:31:37;6.30;99.90
22779;DHT22;11556;51.194;3.800;2024-02-26T02:34:03;6.20;99.90
22779;DHT22;11556;51.194;3.800;2024-02-26T02:36:29;6.20;99.90
22779;DHT22;11556;51.194;3.800;2024-02-26T02:38:54;6.20;99.90
22779;DHT22;11556;51.194;3.800;2024-02-26T02:41:20;6.20;99.90
22779;DHT22;11556;51.194;3.800;2024-02-26T02:43:46;6.20;99.90
22779;DHT22;11556;51.194;3.800;2024-02-26T02:46:11;6.20;99.90
22779;DHT22;11556;51.194;3.800;2024-02-26T02:48:37;6.20;99.90
22779;DHT22;11556;51.194;3.800;2024-02-26T02:51:04;6.20;99.90
22779;DHT22;11556;51.194;3.800;2024-02-26T02:53:29;6.10;99.90
22779;DHT22;11556;51.194;3.800;2024-02-26T02:55:55;6.20;99.90
22779;DHT22;11556;51.194;3.800;2024-02-26T02:58:21;6.10;99.90
22779;DHT22;11556;51.194;3.800;2024-02-26T03:00:46;6.10;99.90
22779;DHT22;11556;51.194;3.800;2024-02-26T03:03:12;6.10;99.90
22779;DHT22;11556;51.194;3.800;2024-02-26T03:05:37;6.10;99.90
22779;DHT22;11556;51.194;3.800;2024-02-26T03:08:03;6.10;99.90
22779;DHT22;11556;51.194;3.800;2024-02-26T03:10:29;6.10;99.90
22779;DHT22;11556;51.194;3.800;2024-02-26T03:12:55;6.10;99.90
22779;DHT22;11556;51.194;3.800;2024-02-26T03:15:22;6.10;99.90
22779;DHT22;11556;51.194;3.800;2024-02-26T03:17:47;6.10;99.90
22779;DHT22;11556;51.194;3.800;2024-02-26T03:20:13;6.10;99.90
22779;DHT22;11556;51.194;3.800;2024-02-26T03:22:39;6.10;99.90
22779;DHT22;11556;51.194;3.800;2024-02-26T03:25:06;6.10;99.90
22779;DHT22;11556;51.194;3.800;2024-02-26T03:27:32;6.10;99.90
22779;DHT22;11556;51.194;3.800;2024-02-26T03:29:57;6.10;99.90
22779;DHT22;11556;51.194;3.800;2024-02-26T03:32:23;6.10;99.90
22779;DHT22;11556;51.194;3.800;2024-02-26T03:34:49;6.10;99.90
22779;DHT22;11556;51.194;3.800;2024-02-26T03:37:14;6.10;99.90
22779;DHT22;11556;51.194;3.800;2024-02-26T03:39:40;6.10;99.90
22779;DHT22;11556;51.194;3.800;2024-02-26T03:42:06;6.10;99.90
22779;DHT22;11556;51.194;3.800;2024-02-26T03:44:32;6.10;99.90
22779;DHT22;11556;51.194;3.800;2024-02-26T03:46:57;6.10;99.90
22779;DHT22;11556;51.194;3.800;2024-02-26T03:49:23;6.10;99.90
22779;DHT22;11556;51.194;3.800;2024-02-26T03:51:49;6.10;99.90
22779;DHT22;11556;51.194;3.800;2024-02-26T03:54:14;6.10;99.90
22779;DHT22;11556;51.194;3.800;2024-02-26T03:56:40;6.10;99.90
22779;DHT22;11556;51.194;3.800;2024-02-26T03:59:06;6.10;99.90
22779;DHT22;11556;51.194;3.800;2024-02-26T04:01:31;6.10;99.90
22779;DHT22;11556;51.194;3.800;2024-02-26T04:03:57;6.10;99.90
22779;DHT22;11556;51.194;3.800;2024-02-26T04:06:23;6.10;99.90
22779;DHT22;11556;51.194;3.800;2024-02-26T04:08:48;6.10;99.90
22779;DHT22;11556;51.194;3.800;2024-02-26T04:11:14;6.10;99.90
22779;DHT22;11556;51.194;3.800;2024-02-26T04:13:43;6.10;99.90
22779;DHT22;11556;51.194;3.800;2024-02-26T04:16:11;6.10;99.90
22779;DHT22;11556;51.194;3.800;2024-02-26T04:18:37;6.10;99.90
22779;DHT22;11556;51.194;3.800;2024-02-26T04:21:04;6.00;99.90
22779;DHT22;11556;51.194;3.800;2024-02-26T04:23:31;6.10;99.90
22779;DHT22;11556;51.194;3.800;2024-02-26T04:25:56;6.10;99.90
22779;DHT22;11556;51.194;3.800;2024-02-26T04:28:22;6.10;99.90
22779;DHT22;11556;51.194;3.800;2024-02-26T04:30:50;6.10;99.90
22779;DHT22;11556;51.194;3.800;2024-02-26T04:33:16;6.10;99.90
22779;DHT22;11556;51.194;3.800;2024-02-26T04:35:42;6.10;99.90
22779;DHT22;11556;51.194;3.800;2024-02-26T04:38:08;6.10;99.90
22779;DHT22;11556;51.194;3.800;2024-02-26T04:40:33;6.10;99.90
22779;DHT22;11556;51.194;3.800;2024-02-26T04:42:59;6.10;99.90
22779;DHT22;11556;51.194;3.800;2024-02-26T04:45:25;6.10;99.90
22779;DHT22;11556;51.194;3.800;2024-02-26T04:47:50;6.10;99.90
22779;DHT22;11556;51.194;3.800;2024-02-26T04:50:16;6.10;99.90
22779;DHT22;11556;51.194;3.800;2024-02-26T04:52:42;6.10;99.90
22779;DHT22;11556;51.194;3.800;2024-02-26T04:55:07;6.10;99.90
22779;DHT22;11556;51.194;3.800;2024-02-26T04:57:33;6.10;99.90
22779;DHT22;11556;51.194;3.800;2024-02-26T04:59:59;6.00;99.90
22779;DHT22;11556;51.194;3.800;2024-02-26T05:02:25;6.00;99.90
22779;DHT22;11556;51.194;3.800;2024-02-26T05:04:50;6.00;99.90
22779;DHT22;11556;51.194;3.800;2024-02-26T05:07:16;6.00;99.90
22779;DHT22;11556;51.194;3.800;2024-02-26T05:09:44;6.00;99.90
22779;DHT22;11556;51.194;3.800;2024-02-26T05:12:10;6.00;99.90
22779;DHT22;11556;51.194;3.800;2024-02-26T05:14:36;6.00;99.90
22779;DHT22;11556;51.194;3.800;2024-02-26T05:17:01;6.00;99.90
22779;DHT22;11556;51.194;3.800;2024-02-26T05:19:27;6.00;99.90
22779;DHT22;11556;51.194;3.800;2024-02-26T05:21:52;6.00;99.90
22779;DHT22;11556;51.194;3.800;2024-02-26T05:24:18;6.00;99.90
22779;DHT22;11556;51.194;3.800;2024-02-26T05:26:47;6.00;99.90
22779;DHT22;11556;51.194;3.800;2024-02-26T05:29:13;5.90;99.90
22779;DHT22;11556;51.194;3.800;2024-02-26T05:31:39;5.90;99.90
22779;DHT22;11556;51.194;3.800;2024-02-26T05:34:05;5.90;99.90
22779;DHT22;11556;51.194;3.800;2024-02-26T05:36:30;5.90;99.90
22779;DHT22;11556;51.194;3.800;2024-02-26T05:38:59;5.90;99.90
22779;DHT22;11556;51.194;3.800;2024-02-26T05:41:25;5.90;99.90
22779;DHT22;11556;51.194;3.800;2024-02-26T05:43:54;5.80;99.90
22779;DHT22;11556;51.194;3.800;2024-02-26T05:46:20;5.80;99.90
22779;DHT22;11556;51.194;3.800;2024-02-26T05:48:49;5.90;99.90
22779;DHT22;11556;51.194;3.800;2024-02-26T05:51:14;5.90;99.90
22779;DHT22;11556;51.194;3.800;2024-02-26T05:53:41;5.90;99.90
22779;DHT22;11556;51.194;3.800;2024-02-26T05:56:07;5.90;99.90
22779;DHT22;11556;51.194;3.800;2024-02-26T05:58:32;5.90;99.90
22779;DHT22;11556;51.194;3.800;2024-02-26T06:00:58;5.80;99.90
22779;DHT22;11556;51.194;3.800;2024-02-26T06:03:25;5.80;99.90
22779;DHT22;11556;51.194;3.800;2024-02-26T06:05:51;5.80;99.90
22779;DHT22;11556;51.194;3.800;2024-02-26T06:08:17;5.70;99.90
22779;DHT22;11556;51.194;3.800;2024-02-26T06:10:42;5.90;99.90
22779;DHT22;11556;51.194;3.800;2024-02-26T06:13:08;5.80;99.90
22779;DHT22;11556;51.194;3.800;2024-02-26T06:15:33;5.80;99.90
22779;DHT22;11556;51.194;3.800;2024-02-26T06:17:59;5.80;99.90
22779;DHT22;11556;51.194;3.800;2024-02-26T06:20:25;5.80;99.90
22779;DHT22;11556;51.194;3.800;2024-02-26T06:22:51;5.80;99.90
22779;DHT22;11556;51.194;3.800;2024-02-26T06:25:16;5.80;99.90
22779;DHT22;11556;51.194;3.800;2024-02-26T06:27:42;5.80;99.90
22779;DHT22;11556;51.194;3.800;2024-02-26T06:30:08;5.70;99.90
22779;DHT22;11556;51.194;3.800;2024-02-26T06:32:36;5.70;99.90
22779;DHT22;11556;51.194;3.800;2024-02-26T06:35:02;5.80;99.90
22779;DHT22;11556;51.194;3.800;2024-02-26T06:37:32;5.70;99.90
22779;DHT22;11556;51.194;3.800;2024-02-26T06:39:59;5.70;99.90
22779;DHT22;11556;51.194;3.800;2024-02-26T06:42:25;5.70;99.90
22779;DHT22;11556;51.194;3.800;2024-02-26T06:44:50;5.70;99.90
22779;DHT22;11556;51.194;3.800;2024-02-26T06:47:16;5.70;99.90
22779;DHT22;11556;51.194;3.800;2024-02-26T06:49:41;5.80;99.90
22779;DHT22;11556;51.194;3.800;2024-02-26T06:52:07;5.70;99.90
22779;DHT22;11556;51.194;3.800;2024-02-26T06:54:33;5.70;99.90
22779;DHT22;11556;51.194;3.800;2024-02-26T06:56:59;5.70;99.90
22779;DHT22;11556;51.194;3.800;2024-02-26T06:59:24;5.70;99.90
22779;DHT22;11556;51.194;3.800;2024-02-26T07:01:50;5.70;99.90
22779;DHT22;11556;51.194;3.800;2024-02-26T07:04:16;5.70;99.90
22779;DHT22;11556;51.194;3.800;2024-02-26T07:06:41;5.70;99.90
22779;DHT22;11556;51.194;3.800;2024-02-26T07:09:08;5.70;99.90
22779;DHT22;11556;51.194;3.800;2024-02-26T07:11:34;5.70;99.90
22779;DHT22;11556;51.194;3.800;2024-02-26T07:13:59;5.70;99.90
22779;DHT22;11556;51.194;3.800;2024-02-26T07:16:26;5.70;99.90
22779;DHT22;11556;51.194;3.800;2024-02-26T07:18:52;5.70;99.90
22779;DHT22;11556;51.194;3.800;2024-02-26T07:21:18;5.70;99.90
22779;DHT22;11556;51.194;3.800;2024-02-26T07:23:43;5.70;99.90
22779;DHT22;11556;51.194;3.800;2024-02-26T07:26:09;5.70;99.90
22779;DHT22;11556;51.194;3.800;2024-02-26T07:28:37;5.70;99.90
22779;DHT22;11556;51.194;3.800;2024-02-26T07:31:03;5.70;99.90
22779;DHT22;11556;51.194;3.800;2024-02-26T07:33:29;5.70;99.90
22779;DHT22;11556;51.194;3.800;2024-02-26T07:35:54;5.70;99.90
22779;DHT22;11556;51.194;3.800;2024-02-26T07:38:20;5.70;99.90
22779;DHT22;11556;51.194;3.800;2024-02-26T07:40:46;5.70;99.90
22779;DHT22;11556;51.194;3.800;2024-02-26T07:43:12;5.70;99.90
22779;DHT22;11556;51.194;3.800;2024-02-26T07:45:37;5.70;99.90
22779;DHT22;11556;51.194;3.800;2024-02-26T07:48:03;5.70;99.90
22779;DHT22;11556;51.194;3.800;2024-02-26T07:50:29;5.70;99.90
22779;DHT22;11556;51.194;3.800;2024-02-26T07:52:54;5.70;99.90
22779;DHT22;11556;51.194;3.800;2024-02-26T07:55:20;5.70;99.90
22779;DHT22;11556;51.194;3.800;2024-02-26T07:57:46;5.70;99.90
22779;DHT22;11556;51.194;3.800;2024-02-26T08:00:12;5.70;99.90
22779;DHT22;11556;51.194;3.800;2024-02-26T08:02:42;5.70;99.90
22779;DHT22;11556;51.194;3.800;2024-02-26T08:05:09;5.70;99.90
22779;DHT22;11556;51.194;3.800;2024-02-26T08:07:34;5.70;99.90
22779;DHT22;11556;51.194;3.800;2024-02-26T08:10:00;5.70;99.90
22779;DHT22;11556;51.194;3.800;2024-02-26T08:12:25;5.70;99.90
22779;DHT22;11556;51.194;3.800;2024-02-26T08:14:51;5.80;99.90
22779;DHT22;11556;51.194;3.800;2024-02-26T08:17:17;5.80;99.90
22779;DHT22;11556;51.194;3.800;2024-02-26T08:19:42;5.80;99.90
22779;DHT22;11556;51.194;3.800;2024-02-26T08:22:08;5.80;99.90
22779;DHT22;11556;51.194;3.800;2024-02-26T08:24:35;5.80;99.90
22779;DHT22;11556;51.194;3.800;2024-02-26T08:27:01;5.90;99.90
22779;DHT22;11556;51.194;3.800;2024-02-26T08:29:26;5.80;99.90
22779;DHT22;11556;51.194;3.800;2024-02-26T08:31:52;5.80;99.90
22779;DHT22;11556;51.194;3.800;2024-02-26T08:34:18;5.80;99.90
22779;DHT22;11556;51.194;3.800;2024-02-26T08:36:44;5.80;99.90
22779;DHT22;11556;51.194;3.800;2024-02-26T08:39:11;5.80;99.90
22779;DHT22;11556;51.194;3.800;2024-02-26T08:41:39;5.80;99.90
22779;DHT22;11556;51.194;3.800;2024-02-26T08:44:04;5.80;99.90
22779;DHT22;11556;51.194;3.800;2024-02-26T08:46:31;5.80;99.90
22779;DHT22;11556;51.194;3.800;2024-02-26T08:48:56;5.80;99.90
22779;DHT22;11556;51.194;3.800;2024-02-26T08:51:22;5.80;99.90
22779;DHT22;11556;51.194;3.800;2024-02-26T08:53:47;5.80;99.90
22779;DHT22;11556;51.194;3.800;2024-02-26T08:56:13;5.80;99.90
22779;DHT22;11556;51.194;3.800;2024-02-26T08:58:45;5.80;99.90
22779;DHT22;11556;51.194;3.800;2024-02-26T09:01:14;5.80;99.90
22779;DHT22;11556;51.194;3.800;2024-02-26T09:03:39;5.90;99.90
22779;DHT22;11556;51.194;3.800;2024-02-26T09:06:05;5.80;99.90
22779;DHT22;11556;51.194;3.800;2024-02-26T09:08:32;5.80;99.90
22779;DHT22;11556;51.194;3.800;2024-02-26T09:10:58;5.80;99.90
22779;DHT22;11556;51.194;3.800;2024-02-26T09:13:24;5.80;99.90
22779;DHT22;11556;51.194;3.800;2024-02-26T09:15:49;5.80;99.90
22779;DHT22;11556;51.194;3.800;2024-02-26T09:18:15;5.90;99.90
22779;DHT22;11556;51.194;3.800;2024-02-26T09:20:41;5.90;99.90
22779;DHT22;11556;51.194;3.800;2024-02-26T09:23:07;5.90;99.90
22779;DHT22;11556;51.194;3.800;2024-02-26T09:25:32;5.80;99.90
22779;DHT22;11556;51.194;3.800;2024-02-26T09:27:59;5.80;99.90
22779;DHT22;11556;51.194;3.800;2024-02-26T09:30:25;5.80;99.90
22779;DHT22;11556;51.194;3.800;2024-02-26T09:32:50;5.80;99.90
22779;DHT22;11556;51.194;3.800;2024-02-26T09:35:16;5.80;99.90
22779;DHT22;11556;51.194;3.800;2024-02-26T09:37:42;5.80;99.90
22779;DHT22;11556;51.194;3.800;2024-02-26T09:40:10;5.80;99.90
22779;DHT22;11556;51.194;3.800;2024-02-26T09:42:37;5.80;99.90
22779;DHT22;11556;51.194;3.800;2024-02-26T09:45:11;5.80;99.90
22779;DHT22;11556;51.194;3.800;2024-02-26T09:47:38;5.80;99.90
22779;DHT22;11556;51.194;3.800;2024-02-26T09:50:06;5.80;99.90
22779;DHT22;11556;51.194;3.800;2024-02-26T09:52:35;5.80;99.90
22779;DHT22;11556;51.194;3.800;2024-02-26T09:55:04;5.80;99.90
22779;DHT22;11556;51.194;3.800;2024-02-26T09:57:31;5.80;99.90
22779;DHT22;11556;51.194;3.800;2024-02-26T09:59:59;5.80;99.90
22779;DHT22;11556;51.194;3.800;2024-02-26T10:02:29;5.80;99.90
22779;DHT22;11556;51.194;3.800;2024-02-26T10:04:56;5.80;99.90
22779;DHT22;11556;51.194;3.800;2024-02-26T10:07:23;5.80;99.90
22779;DHT22;11556;51.194;3.800;2024-02-26T10:09:49;5.80;99.90
22779;DHT22;11556;51.194;3.800;2024-02-26T10:12:16;5.80;99.90
22779;DHT22;11556;51.194;3.800;2024-02-26T10:14:42;5.80;99.90
22779;DHT22;11556;51.194;3.800;2024-02-26T10:17:08;5.80;99.90
22779;DHT22;11556;51.194;3.800;2024-02-26T10:19:34;5.80;99.90
22779;DHT22;11556;51.194;3.800;2024-02-26T10:22:01;5.80;99.90
22779;DHT22;11556;51.194;3.800;2024-02-26T10:24:27;5.80;99.90
22779;DHT22;11556;51.194;3.800;2024-02-26T10:26:54;5.80;99.90
22779;DHT22;11556;51.194;3.800;2024-02-26T10:29:21;5.80;99.90
22779;DHT22;11556;51.194;3.800;2024-02-26T10:31:47;5.80;99.90
22779;DHT22;11556;51.194;3.800;2024-02-26T10:34:15;5.80;99.90
22779;DHT22;11556;51.194;3.800;2024-02-26T10:36:41;5.80;99.90
22779;DHT22;11556;51.194;3.800;2024-02-26T10:39:07;5.80;99.90
22779;DHT22;11556;51.194;3.800;2024-02-26T10:41:35;5.90;99.90
22779;DHT22;11556;51.194;3.800;2024-02-26T10:44:02;5.90;99.90
22779;DHT22;11556;51.194;3.800;2024-02-26T10:46:27;5.90;99.90
22779;DHT22;11556;51.194;3.800;2024-02-26T10:48:54;5.90;99.90
22779;DHT22;11556;51.194;3.800;2024-02-26T10:51:27;5.90;99.90
22779;DHT22;11556;51.194;3.800;2024-02-26T10:53:56;5.90;99.90
22779;DHT22;11556;51.194;3.800;2024-02-26T10:56:27;5.90;99.90
22779;DHT22;11556;51.194;3.800;2024-02-26T10:58:54;5.90;99.90
22779;DHT22;11556;51.194;3.800;2024-02-26T11:01:21;5.90;99.90
22779;DHT22;11556;51.194;3.800;2024-02-26T11:03:51;5.90;99.90
22779;DHT22;11556;51.194;3.800;2024-02-26T11:06:21;5.90;99.90
22779;DHT22;11556;51.194;3.800;2024-02-26T11:08:50;5.90;99.90
22779;DHT22;11556;51.194;3.800;2024-02-26T11:11:20;5.90;99.90
22779;DHT22;11556;51.194;3.800;2024-02-26T11:13:47;5.90;99.90
22779;DHT22;11556;51.194;3.800;2024-02-26T11:16:21;6.00;99.90
22779;DHT22;11556;51.194;3.800;2024-02-26T11:18:48;6.00;99.90
22779;DHT22;11556;51.194;3.800;2024-02-26T11:21:17;5.90;99.90
22779;DHT22;11556;51.194;3.800;2024-02-26T11:23:53;5.90;99.90
22779;DHT22;11556;51.194;3.800;2024-02-26T11:26:20;5.90;99.90
22779;DHT22;11556;51.194;3.800;2024-02-26T11:28:48;5.90;99.90
22779;DHT22;11556;51.194;3.800;2024-02-26T11:31:15;5.90;99.90
22779;DHT22;11556;51.194;3.800;2024-02-26T11:33:40;5.90;99.90
22779;DHT22;11556;51.194;3.800;2024-02-26T11:36:10;6.00;99.90
22779;DHT22;11556;51.194;3.800;2024-02-26T11:38:37;6.00;99.90
22779;DHT22;11556;51.194;3.800;2024-02-26T11:41:04;5.90;99.90
22779;DHT22;11556;51.194;3.800;2024-02-26T11:43:49;6.00;99.90
22779;DHT22;11556;51.194;3.800;2024-02-26T11:46:29;6.00;99.90
22779;DHT22;11556;51.194;3.800;2024-02-26T11:48:58;6.00;99.90
22779;DHT22;11556;51.194;3.800;2024-02-26T11:51:28;6.00;99.90
22779;DHT22;11556;51.194;3.800;2024-02-26T11:53:57;6.00;99.90
22779;DHT22;11556;51.194;3.800;2024-02-26T11:56:24;6.00;99.90
22779;DHT22;11556;51.194;3.800;2024-02-26T12:01:43;6.10;99.90
22779;DHT22;11556;51.194;3.800;2024-02-26T12:04:13;6.10;99.90
22779;DHT22;11556;51.194;3.800;2024-02-26T12:06:56;6.10;99.90
22779;DHT22;11556;51.194;3.800;2024-02-26T12:09:34;6.00;99.90
22779;DHT22;11556;51.194;3.800;2024-02-26T12:12:05;6.00;99.90
22779;DHT22;11556;51.194;3.800;2024-02-26T12:14:39;6.10;99.90
22779;DHT22;11556;51.194;3.800;2024-02-26T12:17:06;6.20;99.90
22779;DHT22;11556;51.194;3.800;2024-02-26T12:19:36;6.10;99.90
22779;DHT22;11556;51.194;3.800;2024-02-26T12:22:02;6.10;99.90
22779;DHT22;11556;51.194;3.800;2024-02-26T12:24:28;6.10;99.90
22779;DHT22;11556;51.194;3.800;2024-02-26T12:26:53;6.10;99.90
22779;DHT22;11556;51.194;3.800;2024-02-26T12:29:19;6.10;99.90
22779;DHT22;11556;51.194;3.800;2024-02-26T12:31:45;6.10;99.90
22779;DHT22;11556;51.194;3.800;2024-02-26T12:34:11;6.10;99.90
22779;DHT22;11556;51.194;3.800;2024-02-26T12:36:37;6.10;99.90
22779;DHT22;11556;51.194;3.800;2024-02-26T12:39:04;6.10;99.90
22779;DHT22;11556;51.194;3.800;2024-02-26T12:41:34;6.10;99.90
22779;DHT22;11556;51.194;3.800;2024-02-26T12:44:01;6.10;99.90
22779;DHT22;11556;51.194;3.800;2024-02-26T12:46:26;6.20;99.90
22779;DHT22;11556;51.194;3.800;2024-02-26T12:48:54;6.10;99.90
22779;DHT22;11556;51.194;3.800;2024-02-26T12:51:22;6.10;99.90
22779;DHT22;11556;51.194;3.800;2024-02-26T12:53:48;6.10;99.90
22779;DHT22;11556;51.194;3.800;2024-02-26T12:56:16;6.10;99.90
22779;DHT22;11556;51.194;3.800;2024-02-26T12:58:42;6.10;99.90
22779;DHT22;11556;51.194;3.800;2024-02-26T13:01:14;6.10;99.90
22779;DHT22;11556;51.194;3.800;2024-02-26T13:03:40;6.10;99.90
22779;DHT22;11556;51.194;3.800;2024-02-26T13:06:06;6.10;99.90
22779;DHT22;11556;51.194;3.800;2024-02-26T13:08:32;6.10;99.90
22779;DHT22;11556;51.194;3.800;2024-02-26T13:10:59;6.20;99.90
22779;DHT22;11556;51.194;3.800;2024-02-26T13:13:25;6.20;99.90
22779;DHT22;11556;51.194;3.800;2024-02-26T13:16:04;6.10;99.90
22779;DHT22;11556;51.194;3.800;2024-02-26T13:18:31;6.20;99.90
22779;DHT22;11556;51.194;3.800;2024-02-26T13:21:10;6.20;99.90
22779;DHT22;11556;51.194;3.800;2024-02-26T13:23:39;6.20;99.90
22779;DHT22;11556;51.194;3.800;2024-02-26T13:26:05;6.20;99.90
22779;DHT22;11556;51.194;3.800;2024-02-26T13:28:31;6.20;99.90
22779;DHT22;11556;51.194;3.800;2024-02-26T13:30:58;6.20;99.90
22779;DHT22;11556;51.194;3.800;2024-02-26T13:33:26;6.20;99.90
22779;DHT22;11556;51.194;3.800;2024-02-26T13:35:54;6.20;99.90
22779;DHT22;11556;51.194;3.800;2024-02-26T13:38:20;6.20;99.90
22779;DHT22;11556;51.194;3.800;2024-02-26T13:40:46;6.20;99.90
22779;DHT22;11556;51.194;3.800;2024-02-26T13:43:11;6.20;99.90
22779;DHT22;11556;51.194;3.800;2024-02-26T13:45:38;6.30;99.90
22779;DHT22;11556;51.194;3.800;2024-02-26T13:48:08;6.20;99.90
22779;DHT22;11556;51.194;3.800;2024-02-26T13:50:35;6.20;99.90
22779;DHT22;11556;51.194;3.800;2024-02-26T13:53:01;6.20;99.90
22779;DHT22;11556;51.194;3.800;2024-02-26T13:55:27;6.20;99.90
22779;DHT22;11556;51.194;3.800;2024-02-26T13:57:58;6.30;99.90
22779;DHT22;11556;51.194;3.800;2024-02-26T14:00:26;6.20;99.90
22779;DHT22;11556;51.194;3.800;2024-02-26T14:02:52;6.20;99.90
22779;DHT22;11556;51.194;3.800;2024-02-26T14:05:18;6.20;99.90
22779;DHT22;11556;51.194;3.800;2024-02-26T14:07:43;6.30;99.90
22779;DHT22;11556;51.194;3.800;2024-02-26T14:10:12;6.20;99.90
22779;DHT22;11556;51.194;3.800;2024-02-26T14:12:38;6.20;99.90
22779;DHT22;11556;51.194;3.800;2024-02-26T14:15:07;6.30;99.90
22779;DHT22;11556;51.194;3.800;2024-02-26T14:17:34;6.20;99.90
22779;DHT22;11556;51.194;3.800;2024-02-26T14:20:00;6.30;99.90
22779;DHT22;11556;51.194;3.800;2024-02-26T14:22:26;6.30;99.90
22779;DHT22;11556;51.194;3.800;2024-02-26T14:24:56;6.30;99.90
22779;DHT22;11556;51.194;3.800;2024-02-26T14:27:22;6.20;99.90
22779;DHT22;11556;51.194;3.800;2024-02-26T14:29:49;6.30;99.90
22779;DHT22;11556;51.194;3.800;2024-02-26T14:32:15;6.30;99.90
22779;DHT22;11556;51.194;3.800;2024-02-26T14:34:40;6.30;99.90
22779;DHT22;11556;51.194;3.800;2024-02-26T14:37:06;6.30;99.90
22779;DHT22;11556;51.194;3.800;2024-02-26T14:39:32;6.30;99.90
22779;DHT22;11556;51.194;3.800;2024-02-26T14:41:58;6.30;99.90
22779;DHT22;11556;51.194;3.800;2024-02-26T14:44:24;6.30;99.90
22779;DHT22;11556;51.194;3.800;2024-02-26T14:46:50;6.30;99.90
22779;DHT22;11556;51.194;3.800;2024-02-26T14:49:16;6.30;99.90
22779;DHT22;11556;51.194;3.800;2024-02-26T14:51:43;6.30;99.90
22779;DHT22;11556;51.194;3.800;2024-02-26T14:54:14;6.40;99.90
22779;DHT22;11556;51.194;3.800;2024-02-26T14:56:40;6.40;99.90
22779;DHT22;11556;51.194;3.800;2024-02-26T14:59:06;6.30;99.90
22779;DHT22;11556;51.194;3.800;2024-02-26T15:01:32;6.40;99.90
22779;DHT22;11556;51.194;3.800;2024-02-26T15:03:58;6.30;99.90
22779;DHT22;11556;51.194;3.800;2024-02-26T15:06:24;6.30;99.90
22779;DHT22;11556;51.194;3.800;2024-02-26T15:08:51;6.40;99.90
22779;DHT22;11556;51.194;3.800;2024-02-26T15:11:16;6.40;99.90
22779;DHT22;11556;51.194;3.800;2024-02-26T15:13:42;6.40;99.90
22779;DHT22;11556;51.194;3.800;2024-02-26T15:16:08;6.40;99.90
22779;DHT22;11556;51.194;3.800;2024-02-26T15:18:34;6.40;99.90
22779;DHT22;11556;51.194;3.800;2024-02-26T15:21:02;6.50;99.90
22779;DHT22;11556;51.194;3.800;2024-02-26T15:23:28;6.50;99.90
22779;DHT22;11556;51.194;3.800;2024-02-26T15:25:54;6.40;99.90
22779;DHT22;11556;51.194;3.800;2024-02-26T15:28:20;6.40;99.90
22779;DHT22;11556;51.194;3.800;2024-02-26T15:30:46;6.40;99.90
22779;DHT22;11556;51.194;3.800;2024-02-26T15:33:13;6.40;99.90
22779;DHT22;11556;51.194;3.800;2024-02-26T15:35:39;6.40;99.90
22779;DHT22;11556;51.194;3.800;2024-02-26T15:38:05;6.40;99.90
22779;DHT22;11556;51.194;3.800;2024-02-26T15:40:30;6.40;99.90
22779;DHT22;11556;51.194;3.800;2024-02-26T15:42:56;6.40;99.90